createdAt,value
2023-01-31T00:01:51.197Z,99606.69
2023-01-31T00:04:21.914Z,99603.73
2023-01-31T00:06:54.167Z,99614.81
2023-01-31T00:09:24.844Z,99615.41
2023-01-31T00:11:54.312Z,99617.20
2023-01-31T00:14:22.924Z,99616.91
2023-01-31T00:16:52.357Z,99620.14
2023-01-31T00:19:22.599Z,99621.97
2023-01-31T00:21:51.845Z,99614.48
2023-01-31T00:24:22.394Z,99618.59
2023-01-31T00:26:56.951Z,99623.02
2023-01-31T00:29:26.891Z,99630.39
2023-01-31T00:31:57.001Z,99633.40
2023-01-31T00:34:27.477Z,99634.71
2023-01-31T00:36:58.058Z,99634.69
2023-01-31T00:39:28.607Z,99645.00
2023-01-31T00:41:59.527Z,99643.48
2023-01-31T00:44:29.509Z,99642.77
2023-01-31T00:47:00.194Z,99644.85
2023-01-31T00:49:30.051Z,99648.05
2023-01-31T00:52:00.587Z,99653.73
2023-01-31T00:54:31.534Z,99648.16
2023-01-31T00:57:02.655Z,99647.80
2023-01-31T00:59:34.290Z,99650.73
2023-01-31T01:02:03.045Z,99649.13
2023-01-31T01:04:32.970Z,99660.52
2023-01-31T01:07:03.004Z,99657.17
2023-01-31T01:09:33.466Z,99660.89
2023-01-31T01:12:04.606Z,99663.43
2023-01-31T01:14:35.553Z,99663.24
2023-01-31T01:17:04.959Z,99663.39
2023-01-31T01:19:34.905Z,99662.30
2023-01-31T01:22:05.170Z,99673.16
2023-01-31T01:24:36.357Z,99669.91
2023-01-31T01:27:06.645Z,99680.92
2023-01-31T01:29:36.776Z,99682.94
2023-01-31T01:32:06.856Z,99676.79
2023-01-31T01:34:36.797Z,99692.34
2023-01-31T01:37:20.203Z,99712.14
2023-01-31T01:39:53.939Z,99702.20
2023-01-31T01:42:25.826Z,99701.40
2023-01-31T01:45:15.708Z,99697.91
2023-01-31T01:47:55.544Z,99712.98
2023-01-31T01:50:39.870Z,99721.46
2023-01-31T01:53:23.139Z,99726.33
2023-01-31T01:55:55.858Z,99727.32
2023-01-31T01:58:54.357Z,99729.66
2023-01-31T02:01:29.919Z,99739.77
2023-01-31T02:03:58.944Z,99732.77
2023-01-31T02:06:28.221Z,99735.63
2023-01-31T02:08:58.317Z,99743.96
2023-01-31T02:11:31.628Z,99751.21
2023-01-31T02:14:06.102Z,99750.52
2023-01-31T02:16:35.997Z,99753.98
2023-01-31T02:19:13.416Z,99758.02
2023-01-31T02:22:03.881Z,99750.42
2023-01-31T02:25:03.951Z,99744.45
2023-01-31T02:28:12.323Z,99762.41
2023-01-31T02:30:58.837Z,99781.30
2023-01-31T02:33:37.277Z,99791.60
2023-01-31T02:36:31.358Z,99799.31
2023-01-31T02:39:11.487Z,99801.54
2023-01-31T02:42:02.520Z,99796.36
2023-01-31T02:44:59.864Z,99793.85
2023-01-31T02:47:50.086Z,99809.19
2023-01-31T02:50:33.970Z,99804.98
2023-01-31T02:53:32.924Z,99803.41
2023-01-31T02:56:30.720Z,99809.79
2023-01-31T02:59:22.039Z,99810.95
2023-01-31T03:02:02.820Z,99830.56
2023-01-31T03:05:15.519Z,99837.02
2023-01-31T03:07:50.698Z,99844.89
2023-01-31T03:10:47.212Z,99854.21
2023-01-31T03:14:08.366Z,99857.05
2023-01-31T03:17:06.190Z,99857.09
2023-01-31T03:19:50.500Z,99863.46
2023-01-31T03:22:28.805Z,99861.02
2023-01-31T03:24:59.399Z,99868.05
2023-01-31T03:27:28.849Z,99880.10
2023-01-31T03:30:06.998Z,99883.02
2023-01-31T03:32:45.504Z,99884.86
2023-01-31T03:35:14.210Z,99906.11
2023-01-31T03:38:06.176Z,99890.13
2023-01-31T03:40:43.487Z,99893.00
2023-01-31T03:43:27.144Z,99895.02
2023-01-31T03:46:16.972Z,99893.79
2023-01-31T03:48:50.237Z,99899.77
2023-01-31T03:51:25.310Z,99905.83
2023-01-31T03:54:04.251Z,99902.61
2023-01-31T03:56:44.900Z,99909.52
2023-01-31T03:59:39.834Z,99909.18
2023-01-31T04:02:13.977Z,99906.94
2023-01-31T04:04:51.320Z,99907.83
2023-01-31T04:07:20.284Z,99915.55
2023-01-31T04:09:49.669Z,99919.48
2023-01-31T04:12:18.047Z,99927.77
2023-01-31T04:14:46.404Z,99936.23
2023-01-31T04:17:15.648Z,99945.36
2023-01-31T04:19:44.306Z,99941.88
2023-01-31T04:22:12.850Z,99945.84
2023-01-31T04:24:41.341Z,99950.54
2023-01-31T04:27:09.974Z,99955.92
2023-01-31T04:29:38.440Z,99957.52
2023-01-31T04:32:06.916Z,99963.40
2023-01-31T04:34:35.365Z,99961.69
2023-01-31T04:37:04.034Z,99957.46
2023-01-31T04:39:33.286Z,99963.33
2023-01-31T04:42:01.727Z,99960.79
2023-01-31T04:44:30.151Z,99961.54
2023-01-31T04:46:58.575Z,99975.04
2023-01-31T04:49:27.205Z,99976.84
2023-01-31T04:51:55.619Z,99980.52
2023-01-31T04:54:24.034Z,99978.81
2023-01-31T04:56:52.401Z,99985.95
2023-01-31T04:59:20.819Z,99981.67
2023-01-31T05:01:49.238Z,99977.39
2023-01-31T05:04:18.565Z,99982.60
2023-01-31T05:06:47.395Z,99972.95
2023-01-31T05:09:16.679Z,99986.45
2023-01-31T05:11:45.158Z,99984.79
2023-01-31T05:14:14.954Z,99981.94
2023-01-31T05:16:47.302Z,99979.05
2023-01-31T05:19:17.775Z,99986.63
2023-01-31T05:21:55.514Z,99993.55
2023-01-31T05:24:27.356Z,99993.23
2023-01-31T05:26:58.774Z,99999.31
2023-01-31T05:29:30.493Z,100008.31
2023-01-31T05:32:03.295Z,100008.77
2023-01-31T05:34:33.523Z,100023.24
2023-01-31T05:37:03.728Z,100023.32
2023-01-31T05:39:32.833Z,100025.97
2023-01-31T05:42:01.918Z,100031.17
2023-01-31T05:44:32.708Z,100034.48
2023-01-31T05:47:02.578Z,100042.09
2023-01-31T05:49:33.455Z,100039.30
2023-01-31T05:52:04.234Z,100040.87
2023-01-31T05:54:34.592Z,100040.39
2023-01-31T05:57:04.573Z,100045.91
2023-01-31T05:59:34.226Z,100046.12
2023-01-31T06:02:04.106Z,100048.68
2023-01-31T06:04:35.001Z,100052.45
2023-01-31T06:07:04.633Z,100060.41
2023-01-31T06:09:34.995Z,100059.28
2023-01-31T06:12:04.377Z,100068.10
2023-01-31T06:14:33.805Z,100064.05
2023-01-31T06:17:04.176Z,100072.55
2023-01-31T06:19:33.643Z,100080.69
2023-01-31T06:22:03.948Z,100083.83
2023-01-31T06:24:33.645Z,100086.05
2023-01-31T06:27:03.448Z,100093.66
2023-01-31T06:29:33.592Z,100097.91
2023-01-31T06:32:03.117Z,100101.30
2023-01-31T06:34:32.986Z,100099.29
2023-01-31T06:37:01.350Z,100100.80
2023-01-31T06:39:31.648Z,100104.52
2023-01-31T06:42:01.479Z,100104.98
2023-01-31T06:44:33.174Z,100101.80
2023-01-31T06:47:04.467Z,100106.83
2023-01-31T06:49:32.969Z,100107.71
2023-01-31T06:52:01.339Z,100112.29
2023-01-31T06:54:31.557Z,100114.08
2023-01-31T06:57:10.156Z,100120.35
2023-01-31T06:59:38.489Z,100122.98
2023-01-31T07:02:08.023Z,100128.89
2023-01-31T07:04:36.969Z,100134.42
2023-01-31T07:07:05.372Z,100137.64
2023-01-31T07:09:33.709Z,100148.00
2023-01-31T07:12:03.161Z,100153.52
2023-01-31T07:14:31.589Z,100154.48
2023-01-31T07:17:01.636Z,100154.63
2023-01-31T07:19:30.088Z,100156.67
2023-01-31T07:21:58.704Z,100155.46
2023-01-31T07:24:27.787Z,100164.08
2023-01-31T07:26:56.873Z,100170.09
2023-01-31T07:29:26.750Z,100172.73
2023-01-31T07:31:58.236Z,100182.04
2023-01-31T07:34:28.894Z,100182.23
2023-01-31T07:36:57.402Z,100182.73
2023-01-31T07:39:25.776Z,100186.64
2023-01-31T07:41:54.215Z,100189.70
2023-01-31T07:44:22.664Z,100191.90
2023-01-31T07:46:52.123Z,100200.81
2023-01-31T07:49:22.181Z,100206.45
2023-01-31T07:51:51.766Z,100206.40
2023-01-31T07:54:20.852Z,100202.36
2023-01-31T07:56:50.201Z,100206.60
2023-01-31T07:59:18.795Z,100203.07
2023-01-31T08:02:07.062Z,100204.20
2023-01-31T08:04:36.716Z,100201.84
2023-01-31T08:07:07.086Z,100197.98
2023-01-31T08:09:39.128Z,100202.79
2023-01-31T08:12:09.533Z,100208.90
2023-01-31T08:14:40.243Z,100205.27
2023-01-31T08:17:10.809Z,100201.73
2023-01-31T08:19:40.480Z,100209.34
2023-01-31T08:22:09.796Z,100206.50
2023-01-31T08:24:38.175Z,100210.63
2023-01-31T08:27:07.878Z,100209.12
2023-01-31T08:29:37.956Z,100212.42
2023-01-31T08:32:07.912Z,100217.83
2023-01-31T08:34:36.297Z,100226.23
2023-01-31T08:37:05.540Z,100220.63
2023-01-31T08:39:33.933Z,100218.09
2023-01-31T08:42:02.432Z,100219.03
2023-01-31T08:44:32.585Z,100220.23
2023-01-31T08:47:02.720Z,100218.63
2023-01-31T08:49:36.863Z,100221.61
2023-01-31T08:52:06.089Z,100228.45
2023-01-31T08:54:34.921Z,100229.05
2023-01-31T08:57:03.352Z,100232.27
2023-01-31T08:59:31.748Z,100239.98
2023-01-31T09:02:00.236Z,100240.59
2023-01-31T09:04:28.937Z,100253.27
2023-01-31T09:06:57.532Z,100251.05
2023-01-31T09:09:26.332Z,100258.28
2023-01-31T09:11:55.232Z,100260.67
2023-01-31T09:14:24.715Z,100260.94
2023-01-31T09:16:53.249Z,100261.81
2023-01-31T09:19:23.494Z,100262.23
2023-01-31T09:21:51.929Z,100260.31
2023-01-31T09:24:21.568Z,100259.86
2023-01-31T09:26:53.030Z,100262.27
2023-01-31T09:29:22.751Z,100255.88
2023-01-31T09:31:55.616Z,100256.93
2023-01-31T09:34:24.467Z,100263.80
2023-01-31T09:36:56.982Z,100258.78
2023-01-31T09:39:27.362Z,100261.40
2023-01-31T09:42:17.899Z,100267.86
2023-01-31T09:45:12.252Z,100272.05
2023-01-31T09:47:49.210Z,100279.61
2023-01-31T09:50:45.669Z,100272.23
2023-01-31T09:53:21.950Z,100266.10
2023-01-31T09:56:28.490Z,100263.58
2023-01-31T09:59:11.235Z,100267.94
2023-01-31T10:01:53.663Z,100262.77
2023-01-31T10:04:49.772Z,100254.37
2023-01-31T10:07:30.728Z,100249.40
2023-01-31T10:10:45.974Z,100254.60
2023-01-31T10:13:29.649Z,100244.77
2023-01-31T10:16:13.808Z,100248.63
2023-01-31T10:18:48.504Z,100250.67
2023-01-31T10:21:31.735Z,100238.19
2023-01-31T10:24:16.410Z,100240.96
2023-01-31T10:27:01.003Z,100248.89
2023-01-31T10:29:43.603Z,100240.42
2023-01-31T10:32:32.378Z,100232.59
2023-01-31T10:35:37.358Z,100232.85
2023-01-31T10:38:28.814Z,100235.40
2023-01-31T10:41:27.831Z,100234.55
2023-01-31T10:44:12.467Z,100237.98
2023-01-31T10:46:41.049Z,100237.47
2023-01-31T10:49:13.062Z,100242.23
2023-01-31T10:52:16.148Z,100240.29
2023-01-31T10:54:48.942Z,100243.91
2023-01-31T10:57:18.120Z,100241.50
2023-01-31T10:59:49.074Z,100245.72
2023-01-31T11:02:27.051Z,100242.92
2023-01-31T11:04:58.924Z,100243.63
2023-01-31T11:07:31.769Z,100238.31
2023-01-31T11:10:00.256Z,100236.19
2023-01-31T11:13:04.676Z,100231.47
2023-01-31T11:15:40.149Z,100226.43
2023-01-31T11:18:14.892Z,100218.49
2023-01-31T11:20:47.596Z,100213.40
2023-01-31T11:23:24.118Z,100203.27
2023-01-31T11:25:55.501Z,100204.27
2023-01-31T11:28:38.468Z,100205.17
2023-01-31T11:31:19.654Z,100206.83
2023-01-31T11:34:51.034Z,100201.72
2023-01-31T11:37:19.356Z,100192.09
2023-01-31T11:40:16.317Z,100190.52
2023-01-31T11:42:57.396Z,100181.35
2023-01-31T11:45:38.798Z,100170.89
2023-01-31T11:48:42.618Z,100168.58
2023-01-31T11:51:30.921Z,100160.40
2023-01-31T11:53:59.401Z,100163.58
2023-01-31T11:56:34.401Z,100161.34
2023-01-31T11:59:09.701Z,100167.38
2023-01-31T12:01:47.955Z,100165.85
2023-01-31T12:04:32.820Z,100154.60
2023-01-31T12:07:20.996Z,100156.40
2023-01-31T12:09:49.984Z,100154.53
2023-01-31T12:12:34.336Z,100155.39
2023-01-31T12:15:15.400Z,100147.80
2023-01-31T12:17:50.641Z,100147.65
2023-01-31T12:20:53.623Z,100153.03
2023-01-31T12:23:46.313Z,100145.72
2023-01-31T12:26:30.516Z,100136.87
2023-01-31T12:29:25.794Z,100129.69
2023-01-31T12:32:03.071Z,100130.20
2023-01-31T12:35:26.318Z,100126.38
2023-01-31T12:38:40.230Z,100119.92
2023-01-31T12:41:29.519Z,100114.56
2023-01-31T12:44:40.448Z,100112.02
2023-01-31T12:47:42.741Z,100118.10
2023-01-31T12:50:26.404Z,100113.85
2023-01-31T12:53:20.144Z,100099.56
2023-01-31T12:56:30.193Z,100100.73
2023-01-31T12:59:24.133Z,100094.22
2023-01-31T13:02:07.752Z,100101.27
2023-01-31T13:05:10.124Z,100101.70
2023-01-31T13:08:06.471Z,100093.25
2023-01-31T13:10:53.162Z,100089.88
2023-01-31T13:13:30.705Z,100088.06
2023-01-31T13:16:12.453Z,100086.56
2023-01-31T13:18:43.206Z,100085.69
2023-01-31T13:21:17.150Z,100080.39
2023-01-31T13:23:52.876Z,100076.70
2023-01-31T13:26:44.330Z,100075.98
2023-01-31T13:29:23.680Z,100073.61
2023-01-31T13:32:19.635Z,100072.24
2023-01-31T13:35:18.134Z,100066.63
2023-01-31T13:37:49.576Z,100060.10
2023-01-31T13:40:29.957Z,100054.67
2023-01-31T13:43:06.371Z,100046.80
2023-01-31T13:45:43.293Z,100042.37
2023-01-31T13:48:32.728Z,100041.05
2023-01-31T13:51:25.117Z,100041.25
2023-01-31T13:54:04.065Z,100038.15
2023-01-31T13:56:36.001Z,100033.51
2023-01-31T13:59:08.710Z,100032.94
2023-01-31T14:01:47.166Z,100037.62
2023-01-31T14:04:15.592Z,100042.49
2023-01-31T14:07:20.179Z,100033.60
2023-01-31T14:09:51.350Z,100032.29
2023-01-31T14:12:36.625Z,100028.66
2023-01-31T14:15:54.747Z,100023.78
2023-01-31T14:18:59.195Z,100020.11
2023-01-31T14:21:30.631Z,100015.68
2023-01-31T14:24:06.250Z,100006.95
2023-01-31T14:26:53.215Z,100012.21
2023-01-31T14:29:27.420Z,100012.45
2023-01-31T14:31:58.746Z,100007.86
2023-01-31T14:34:32.340Z,99999.45
2023-01-31T14:37:16.201Z,99997.96
2023-01-31T14:40:12.649Z,99996.34
2023-01-31T14:43:15.331Z,99999.78
2023-01-31T14:46:10.657Z,99996.98
2023-01-31T14:48:58.669Z,99994.06
2023-01-31T14:52:02.024Z,99990.43
2023-01-31T14:55:10.505Z,99980.05
2023-01-31T14:57:45.796Z,99971.67
2023-01-31T15:00:14.161Z,99972.42
2023-01-31T15:03:08.491Z,99969.16
2023-01-31T15:05:37.495Z,99971.29
2023-01-31T15:08:19.721Z,99973.53
2023-01-31T15:11:45.333Z,99977.52
2023-01-31T15:14:48.148Z,99970.81
2023-01-31T15:17:35.698Z,99973.95
2023-01-31T15:20:20.666Z,99972.48
2023-01-31T15:22:51.235Z,99972.30
2023-01-31T15:25:48.132Z,99974.20
2023-01-31T15:28:37.489Z,99965.67
2023-01-31T15:31:19.232Z,99970.44
2023-01-31T15:33:59.981Z,99969.02
2023-01-31T15:37:02.564Z,99969.84
2023-01-31T15:39:46.228Z,99970.66
2023-01-31T15:42:26.612Z,99967.44
2023-01-31T15:45:25.706Z,99965.15
2023-01-31T15:48:15.146Z,99963.63
2023-01-31T15:50:58.929Z,99960.92
2023-01-31T15:53:32.950Z,99963.86
2023-01-31T15:56:03.463Z,99958.48
2023-01-31T15:58:34.517Z,99962.15
2023-01-31T16:01:03.564Z,99956.38
2023-01-31T16:03:43.249Z,99950.95
2023-01-31T16:06:36.713Z,99947.64
2023-01-31T16:09:08.163Z,99951.77
2023-01-31T16:11:38.565Z,99952.93
2023-01-31T16:14:10.463Z,99949.91
2023-01-31T16:16:38.984Z,99950.70
2023-01-31T16:19:07.873Z,99950.77
2023-01-31T16:21:45.185Z,99948.59
2023-01-31T16:24:22.775Z,99944.14
2023-01-31T16:27:08.280Z,99943.44
2023-01-31T16:29:44.087Z,99934.86
2023-01-31T16:32:40.273Z,99935.13
2023-01-31T16:35:26.955Z,99926.94
2023-01-31T16:38:15.585Z,99921.70
2023-01-31T16:40:53.036Z,99913.99
2023-01-31T16:43:28.548Z,99905.09
2023-01-31T16:45:59.931Z,99905.63
2023-01-31T16:48:32.515Z,99901.47
2023-01-31T16:51:31.289Z,99895.14
2023-01-31T16:54:30.867Z,99884.80
2023-01-31T16:57:02.349Z,99885.65
2023-01-31T16:59:33.561Z,99880.64
2023-01-31T17:02:20.879Z,99881.15
2023-01-31T17:04:53.098Z,99878.73
2023-01-31T17:07:35.135Z,99878.37
2023-01-31T17:10:08.846Z,99873.35
2023-01-31T17:12:40.449Z,99861.27
2023-01-31T17:15:20.528Z,99865.00
2023-01-31T17:17:49.151Z,99863.60
2023-01-31T17:20:20.380Z,99856.48
2023-01-31T17:22:57.193Z,99856.64
2023-01-31T17:25:35.012Z,99846.42
2023-01-31T17:28:05.126Z,99841.20
2023-01-31T17:30:34.334Z,99834.98
2023-01-31T17:33:02.740Z,99832.02
2023-01-31T17:35:38.881Z,99833.04
2023-01-31T17:38:07.791Z,99826.61
2023-01-31T17:40:40.373Z,99822.27
2023-01-31T17:43:20.517Z,99819.84
2023-01-31T17:45:48.966Z,99819.05
2023-01-31T17:48:26.319Z,99813.98
2023-01-31T17:50:55.636Z,99806.66
2023-01-31T17:53:24.114Z,99803.80
2023-01-31T17:55:52.680Z,99801.67
2023-01-31T17:58:22.282Z,99799.03
2023-01-31T18:00:50.850Z,99791.89
2023-01-31T18:03:23.365Z,99790.09
2023-01-31T18:05:52.420Z,99790.98
2023-01-31T18:08:23.162Z,99783.13
2023-01-31T18:10:51.728Z,99778.53
2023-01-31T18:13:20.276Z,99779.78
2023-01-31T18:15:48.670Z,99777.80
2023-01-31T18:18:17.132Z,99774.41
2023-01-31T18:20:48.220Z,99774.16
2023-01-31T18:23:16.839Z,99771.52
2023-01-31T18:25:46.781Z,99770.92
2023-01-31T18:28:15.236Z,99774.15
2023-01-31T18:30:43.616Z,99777.73
2023-01-31T18:33:12.383Z,99775.78
2023-01-31T18:35:40.769Z,99773.11
2023-01-31T18:38:09.193Z,99772.35
2023-01-31T18:40:39.758Z,99766.08
2023-01-31T18:43:08.149Z,99761.20
2023-01-31T18:45:37.810Z,99758.36
2023-01-31T18:48:06.209Z,99756.02
2023-01-31T18:50:34.555Z,99750.20
2023-01-31T18:53:03.361Z,99741.65
2023-01-31T18:55:32.092Z,99729.69
2023-01-31T18:58:00.453Z,99727.65
2023-01-31T19:00:28.944Z,99733.88
2023-01-31T19:02:58.560Z,99730.52
2023-01-31T19:05:27.255Z,99741.68
2023-01-31T19:07:55.614Z,99739.06
2023-01-31T19:10:24.021Z,99740.53
2023-01-31T19:12:52.496Z,99743.20
2023-01-31T19:15:21.172Z,99742.00
2023-01-31T19:17:49.689Z,99738.69
2023-01-31T19:20:18.427Z,99734.27
2023-01-31T19:22:46.913Z,99725.42
2023-01-31T19:25:16.096Z,99725.46
2023-01-31T19:27:44.552Z,99727.25
2023-01-31T19:30:13.811Z,99729.03
2023-01-31T19:32:42.481Z,99723.73
2023-01-31T19:35:11.099Z,99703.75
2023-01-31T19:37:39.449Z,99702.63
2023-01-31T19:40:08.797Z,99701.42
2023-01-31T19:42:37.666Z,99703.53
2023-01-31T19:45:11.335Z,99701.64
2023-01-31T19:47:39.802Z,99696.15
2023-01-31T19:50:09.202Z,99692.02
2023-01-31T19:52:38.140Z,99699.52
2023-01-31T19:55:07.223Z,99695.85
2023-01-31T19:57:35.589Z,99696.04
2023-01-31T20:00:05.332Z,99693.91
2023-01-31T20:02:33.772Z,99688.63
2023-01-31T20:05:02.237Z,99678.03
2023-01-31T20:07:30.842Z,99676.14
2023-01-31T20:09:59.338Z,99672.67
2023-01-31T20:12:27.668Z,99680.08
2023-01-31T20:14:56.157Z,99674.39
2023-01-31T20:17:25.195Z,99670.56
2023-01-31T20:19:53.857Z,99669.77
2023-01-31T20:22:22.990Z,99664.94
2023-01-31T20:24:51.417Z,99663.88
2023-01-31T20:27:20.161Z,99676.16
2023-01-31T20:29:48.451Z,99663.89
2023-01-31T20:32:17.964Z,99669.52
2023-01-31T20:34:46.264Z,99667.98
2023-01-31T20:37:14.791Z,99672.34
2023-01-31T20:39:43.352Z,99672.20
2023-01-31T20:42:12.056Z,99664.59
2023-01-31T20:44:40.638Z,99663.19
2023-01-31T20:47:09.059Z,99656.69
2023-01-31T20:49:37.448Z,99658.27
2023-01-31T20:52:05.802Z,99661.06
2023-01-31T20:54:34.160Z,99669.36
2023-01-31T20:57:02.558Z,99674.38
2023-01-31T20:59:30.912Z,99664.52
2023-01-31T21:01:59.251Z,99667.20
2023-01-31T21:04:27.748Z,99658.89
2023-01-31T21:06:56.089Z,99661.57
2023-01-31T21:09:24.398Z,99663.07
2023-01-31T21:11:52.748Z,99661.46
2023-01-31T21:14:21.288Z,99657.08
2023-01-31T21:16:49.728Z,99661.40
2023-01-31T21:19:18.329Z,99655.61
2023-01-31T21:21:46.617Z,99653.34
2023-01-31T21:24:14.985Z,99651.73
2023-01-31T21:26:43.814Z,99653.20
2023-01-31T21:29:12.207Z,99644.20
2023-01-31T21:31:40.611Z,99640.55
2023-01-31T21:34:08.999Z,99643.31
2023-01-31T21:36:37.312Z,99650.33
2023-01-31T21:39:05.624Z,99649.42
2023-01-31T21:41:52.606Z,99654.77
2023-01-31T21:44:20.965Z,99647.55
2023-01-31T21:46:49.854Z,99652.23
2023-01-31T21:49:18.201Z,99650.33
2023-01-31T21:51:46.631Z,99647.29
2023-01-31T21:54:15.030Z,99651.83
2023-01-31T21:56:43.371Z,99645.51
2023-01-31T21:59:12.078Z,99637.02
2023-01-31T22:01:40.571Z,99634.06
2023-01-31T22:04:09.168Z,99640.33
2023-01-31T22:06:41.039Z,99637.70
2023-01-31T22:09:12.418Z,99647.62
2023-01-31T22:11:42.249Z,99627.67
2023-01-31T22:14:16.601Z,99620.64
2023-01-31T22:16:45.166Z,99622.92
2023-01-31T22:19:14.682Z,99621.98
2023-01-31T22:21:43.628Z,99632.15
2023-01-31T22:24:12.015Z,99631.71
2023-01-31T22:26:44.042Z,99640.23
2023-01-31T22:29:15.802Z,99637.78
2023-01-31T22:31:45.168Z,99636.95
2023-01-31T22:34:16.094Z,99639.98
2023-01-31T22:36:44.394Z,99631.35
2023-01-31T22:39:15.992Z,99645.30
2023-01-31T22:41:44.777Z,99647.28
2023-01-31T22:44:13.111Z,99639.81
2023-01-31T22:46:41.791Z,99625.77
2023-01-31T22:49:10.224Z,99634.91
2023-01-31T22:51:38.593Z,99630.14
2023-01-31T22:54:06.918Z,99618.16
2023-01-31T22:56:35.488Z,99609.83
2023-01-31T22:59:06.519Z,99608.75
2023-01-31T23:01:37.294Z,99606.86
2023-01-31T23:04:10.940Z,99606.02
2023-01-31T23:06:39.346Z,99622.67
2023-01-31T23:09:07.701Z,99616.07
2023-01-31T23:11:36.089Z,99710.62
2023-01-31T23:14:04.450Z,99770.50
2023-01-31T23:16:51.530Z,99749.78
2023-01-31T23:19:19.994Z,99729.49
2023-01-31T23:21:49.417Z,99727.63
2023-01-31T23:24:19.139Z,99729.22
2023-01-31T23:26:47.753Z,99720.36
2023-01-31T23:29:16.220Z,99705.14
2023-01-31T23:31:44.706Z,99714.69
2023-01-31T23:34:13.452Z,99719.52
2023-01-31T23:36:41.951Z,99722.64
2023-01-31T23:39:10.661Z,99702.39
2023-01-31T23:41:39.233Z,99706.21
2023-01-31T23:44:07.645Z,99710.23
2023-01-31T23:46:36.101Z,99710.17
2023-01-31T23:49:04.615Z,99699.23
2023-01-31T23:51:33.836Z,99692.09
2023-01-31T23:54:02.303Z,99691.27
2023-01-31T23:56:30.773Z,99717.73
2023-01-31T23:58:59.577Z,99721.46
